Time;durP1;ratioP1;P1;durP2;ratioP2;P2;SDS_P1;SDS_P2;PMS_P1;PMS_P2;Temp;Humidity;BMP_temperature;BMP_pressure;BME280_temperature;BME280_humidity;BME280_pressure;Samples;Min_cycle;Max_cycle;Signal;HPM_P1;HPM_P2
2023/06/21 00:00:34;;;;;;;255.30;244.77;;;17.30;99.90;;;;;;5074354;28;20055;-73
2023/06/21 00:03:01;;;;;;;240.60;230.65;;;17.40;99.90;;;;;;5076148;28;20036;-73
2023/06/21 00:05:27;;;;;;;247.05;237.00;;;17.30;99.90;;;;;;5072807;28;20044;-73
2023/06/21 00:07:54;;;;;;;256.77;246.13;;;17.30;99.90;;;;;;5074893;28;20105;-73
2023/06/21 00:10:23;;;;;;;261.90;251.13;;;17.10;99.90;;;;;;5075275;28;20031;-73
2023/06/21 00:12:56;;;;;;;236.73;227.02;;;17.00;99.90;;;;;;5076527;28;20098;-73
2023/06/21 00:15:22;;;;;;;255.02;243.77;;;17.10;99.90;;;;;;5076776;28;20028;-73
2023/06/21 00:17:48;;;;;;;251.18;240.20;;;17.20;99.90;;;;;;5073375;28;20077;-71
2023/06/21 00:20:14;;;;;;;265.80;253.13;;;17.20;99.90;;;;;;5073084;28;20032;-73
2023/06/21 00:22:41;;;;;;;246.02;236.02;;;17.10;99.90;;;;;;5077012;28;20418;-73
2023/06/21 00:25:08;;;;;;;198.98;190.30;;;17.10;99.90;;;;;;5074111;28;20111;-73
2023/06/21 00:27:35;;;;;;;228.20;218.60;;;17.10;99.90;;;;;;5075148;28;20025;-73
2023/06/21 00:30:01;;;;;;;233.60;223.75;;;17.10;99.90;;;;;;5077444;28;20078;-73
2023/06/21 00:32:27;;;;;;;227.60;218.02;;;16.90;99.90;;;;;;5072244;28;20036;-73
2023/06/21 00:34:52;;;;;;;245.13;235.18;;;16.90;99.90;;;;;;5079547;28;20051;-73
2023/06/21 00:37:18;;;;;;;241.82;231.80;;;17.00;99.90;;;;;;5075543;28;20398;-73
2023/06/21 00:39:44;;;;;;;222.95;213.93;;;17.00;99.90;;;;;;5074461;28;20040;-73
2023/06/21 00:42:10;;;;;;;216.45;206.45;;;16.90;99.90;;;;;;5077357;28;20041;-73
2023/06/21 00:44:36;;;;;;;231.27;222.02;;;16.90;99.90;;;;;;5072976;28;20036;-73
2023/06/21 00:47:02;;;;;;;233.30;223.68;;;16.80;99.90;;;;;;5077576;28;20036;-73
2023/06/21 00:49:28;;;;;;;205.48;197.13;;;16.80;99.90;;;;;;5073743;28;20029;-73
2023/06/21 00:51:57;;;;;;;233.68;223.77;;;16.70;99.90;;;;;;5069435;28;20036;-73
2023/06/21 00:54:26;;;;;;;227.93;217.52;;;16.80;99.90;;;;;;5075043;28;20117;-73
2023/06/21 00:56:53;;;;;;;216.45;207.57;;;16.80;99.90;;;;;;5071595;28;20028;-73
2023/06/21 00:59:19;;;;;;;200.20;191.63;;;16.70;99.90;;;;;;5075940;28;20056;-73
2023/06/21 01:01:46;;;;;;;215.85;206.55;;;16.60;99.90;;;;;;5077693;28;20039;-73
2023/06/21 01:04:12;;;;;;;241.90;231.85;;;16.70;99.90;;;;;;5073626;28;20044;-73
2023/06/21 01:07:07;;;;;;;213.35;204.73;;;16.60;99.90;;;;;;5078984;28;20487;-73
2023/06/21 01:09:47;;;;;;;188.05;180.52;;;16.50;99.90;;;;;;5075185;28;20059;-73
2023/06/21 01:12:28;;;;;;;180.88;173.30;;;16.60;99.90;;;;;;5069196;28;20032;-73
2023/06/21 01:15:15;;;;;;;188.70;180.80;;;16.50;99.90;;;;;;5073751;28;20020;-73
2023/06/21 01:17:42;;;;;;;152.18;145.90;;;16.50;99.90;;;;;;5073780;28;20043;-73
2023/06/21 01:20:18;;;;;;;209.93;201.15;;;16.50;99.90;;;;;;5072623;28;20068;-72
2023/06/21 01:23:23;;;;;;;162.10;155.27;;;16.50;99.90;;;;;;5076179;28;20060;-73
2023/06/21 01:26:11;;;;;;;187.23;179.45;;;16.50;99.90;;;;;;5069631;28;20421;-73
2023/06/21 01:29:08;;;;;;;187.88;179.80;;;16.50;99.90;;;;;;5075970;28;20028;-73
2023/06/21 01:31:35;;;;;;;160.38;153.48;;;16.50;99.90;;;;;;5071591;28;20033;-73
2023/06/21 01:34:02;;;;;;;190.82;183.02;;;16.50;99.90;;;;;;5056452;28;20021;-73
2023/06/21 01:36:28;;;;;;;203.95;195.68;;;16.60;99.90;;;;;;5073339;28;20033;-73
2023/06/21 01:38:56;;;;;;;197.95;188.82;;;16.60;99.90;;;;;;5073669;28;20435;-73
2023/06/21 01:41:22;;;;;;;219.75;210.45;;;16.60;99.90;;;;;;5071747;28;20028;-73
2023/06/21 01:43:48;;;;;;;184.32;176.93;;;16.70;99.90;;;;;;5073638;28;20043;-72
2023/06/21 01:46:15;;;;;;;196.65;188.18;;;16.60;99.90;;;;;;5075921;28;20040;-73
2023/06/21 01:48:42;;;;;;;198.02;189.80;;;16.60;99.90;;;;;;5074397;28;20032;-73
2023/06/21 01:51:09;;;;;;;203.98;195.20;;;16.60;99.90;;;;;;5074764;28;20115;-73
2023/06/21 01:53:37;;;;;;;201.45;192.82;;;16.60;99.90;;;;;;5077479;28;20627;-73
2023/06/21 01:56:09;;;;;;;217.98;208.27;;;16.60;99.90;;;;;;5070085;28;20058;-74
2023/06/21 01:58:35;;;;;;;180.63;172.65;;;16.60;99.90;;;;;;5076513;28;20035;-73
2023/06/21 02:01:02;;;;;;;186.82;179.20;;;16.60;99.90;;;;;;5074445;28;20029;-73
2023/06/21 02:03:29;;;;;;;209.73;200.50;;;16.60;99.90;;;;;;5070910;28;20036;-73
2023/06/21 02:05:59;;;;;;;194.57;186.55;;;16.60;99.90;;;;;;5074826;28;20040;-73
2023/06/21 02:08:25;;;;;;;181.05;173.32;;;16.60;99.90;;;;;;5074565;28;20033;-73
2023/06/21 02:10:51;;;;;;;187.77;179.38;;;16.60;99.90;;;;;;5051677;28;20119;-73
2023/06/21 02:13:17;;;;;;;198.43;190.07;;;16.60;99.90;;;;;;5071592;28;20111;-73
2023/06/21 02:15:42;;;;;;;183.73;175.88;;;16.60;99.90;;;;;;5068972;28;20037;-73
2023/06/21 02:18:09;;;;;;;168.32;161.57;;;16.60;99.90;;;;;;5072457;28;20028;-73
2023/06/21 02:20:35;;;;;;;169.10;161.98;;;16.60;99.90;;;;;;5074418;28;20029;-73
2023/06/21 02:23:01;;;;;;;183.07;174.57;;;16.60;99.90;;;;;;5070454;28;20172;-73
2023/06/21 02:25:28;;;;;;;174.00;166.60;;;16.60;99.90;;;;;;5071598;28;20115;-73
2023/06/21 02:27:53;;;;;;;203.50;195.00;;;16.60;99.90;;;;;;5069794;28;20102;-72
2023/06/21 02:30:19;;;;;;;180.90;173.38;;;16.50;99.90;;;;;;5074129;28;20493;-73
2023/06/21 02:32:45;;;;;;;155.60;148.73;;;16.50;99.90;;;;;;5075890;28;20040;-73
2023/06/21 02:35:10;;;;;;;171.30;163.75;;;16.50;99.90;;;;;;5072645;28;20375;-73
2023/06/21 02:37:37;;;;;;;185.40;177.75;;;16.50;99.90;;;;;;5074037;28;20032;-73
2023/06/21 02:40:13;;;;;;;182.57;173.77;;;16.50;99.90;;;;;;5072604;28;20024;-73
2023/06/21 02:42:40;;;;;;;181.10;172.60;;;16.60;99.90;;;;;;5086556;28;20025;-73
2023/06/21 02:45:07;;;;;;;169.10;161.32;;;16.60;99.90;;;;;;5076925;28;20039;-73
2023/06/21 02:47:33;;;;;;;178.75;170.98;;;16.60;99.90;;;;;;5071981;28;20123;-73
2023/06/21 02:49:59;;;;;;;187.38;179.85;;;16.60;99.90;;;;;;5074402;28;20453;-73
2023/06/21 02:52:24;;;;;;;189.15;181.18;;;16.50;99.90;;;;;;5071727;28;20041;-73
2023/06/21 02:54:52;;;;;;;185.93;177.30;;;16.60;99.90;;;;;;5069623;28;20040;-73
2023/06/21 02:57:18;;;;;;;167.80;160.38;;;16.40;99.90;;;;;;5074505;28;20059;-73
2023/06/21 02:59:44;;;;;;;174.95;167.40;;;16.40;99.90;;;;;;5070645;28;20136;-73
2023/06/21 03:02:10;;;;;;;175.50;168.20;;;16.40;99.90;;;;;;5078128;28;20040;-73
2023/06/21 03:04:36;;;;;;;159.88;152.43;;;16.40;99.90;;;;;;5075774;28;20040;-73
2023/06/21 03:07:01;;;;;;;150.65;143.88;;;16.40;99.90;;;;;;5072373;28;20109;-73
2023/06/21 03:09:30;;;;;;;180.20;172.30;;;16.50;99.90;;;;;;5074569;28;20183;-73
2023/06/21 03:11:56;;;;;;;193.70;185.60;;;16.40;99.90;;;;;;5071568;28;20078;-73
2023/06/21 03:14:21;;;;;;;160.07;152.73;;;16.30;99.90;;;;;;5070907;28;20071;-72
2023/06/21 03:16:47;;;;;;;162.25;155.27;;;16.30;99.90;;;;;;5075734;28;20068;-73
2023/06/21 03:19:13;;;;;;;171.27;162.98;;;16.40;99.90;;;;;;5053800;28;20029;-73
2023/06/21 03:21:38;;;;;;;166.85;159.45;;;16.50;99.90;;;;;;5071967;28;20449;-73
2023/06/21 03:24:04;;;;;;;177.18;169.50;;;16.50;99.90;;;;;;5074701;28;20044;-73
2023/06/21 03:26:32;;;;;;;159.55;152.57;;;16.40;99.90;;;;;;5072584;28;20070;-73
2023/06/21 03:28:59;;;;;;;162.75;156.00;;;16.50;99.90;;;;;;5073164;28;20040;-73
2023/06/21 03:31:25;;;;;;;176.50;169.13;;;16.40;99.90;;;;;;5081589;28;20058;-73
2023/06/21 03:33:50;;;;;;;161.00;154.20;;;16.50;99.90;;;;;;5076291;28;20382;-74
2023/06/21 03:36:16;;;;;;;141.52;135.70;;;16.50;99.90;;;;;;5079742;28;20028;-73
2023/06/21 03:38:42;;;;;;;173.60;165.93;;;16.70;99.80;;;;;;5075954;28;20036;-73
2023/06/21 03:41:07;;;;;;;145.23;138.55;;;16.70;99.40;;;;;;5083766;28;20511;-73
2023/06/21 03:43:33;;;;;;;154.23;147.50;;;16.80;99.70;;;;;;5074544;28;20040;-73
2023/06/21 03:46:00;;;;;;;105.47;100.60;;;16.80;99.50;;;;;;5089976;28;20032;-73
2023/06/21 03:48:25;;;;;;;86.70;82.55;;;16.90;98.90;;;;;;5077422;28;20024;-73
2023/06/21 03:50:51;;;;;;;117.57;112.38;;;16.90;99.30;;;;;;5075794;28;20028;-73
2023/06/21 03:53:17;;;;;;;195.13;185.70;;;16.70;99.60;;;;;;5077898;28;20032;-74
2023/06/21 03:55:43;;;;;;;281.50;269.27;;;16.60;99.90;;;;;;5080084;28;20048;-74
2023/06/21 03:58:09;;;;;;;280.85;267.52;;;17.10;99.90;;;;;;5071771;28;20033;-74
2023/06/21 04:00:35;;;;;;;247.13;236.02;;;17.20;99.90;;;;;;5081756;28;20040;-74
2023/06/21 04:03:01;;;;;;;314.73;300.80;;;17.60;99.90;;;;;;5074690;28;20457;-74
2023/06/21 04:05:26;;;;;;;281.33;269.23;;;17.70;99.90;;;;;;5077490;28;20036;-73
2023/06/21 04:07:52;;;;;;;253.23;242.05;;;17.90;99.90;;;;;;5077587;28;20486;-74
2023/06/21 04:10:18;;;;;;;184.70;176.07;;;18.10;99.90;;;;;;5074424;28;20042;-74
2023/06/21 04:12:43;;;;;;;159.38;151.90;;;17.90;99.90;;;;;;5076603;28;20044;-74
2023/06/21 04:15:10;;;;;;;290.38;277.83;;;18.00;99.90;;;;;;5072892;28;20055;-73
2023/06/21 04:17:36;;;;;;;209.45;199.73;;;17.90;99.90;;;;;;5073476;28;20065;-72
2023/06/21 04:20:07;;;;;;;224.70;214.80;;;18.00;99.90;;;;;;5072065;28;20066;-73
2023/06/21 04:22:33;;;;;;;172.18;164.57;;;18.20;99.90;;;;;;5077942;28;20835;-73
2023/06/21 04:24:58;;;;;;;228.25;218.43;;;18.60;99.90;;;;;;5071347;28;20139;-73
2023/06/21 04:27:27;;;;;;;90.78;85.85;;;18.70;99.90;;;;;;5072293;28;20059;-73
2023/06/21 04:29:53;;;;;;;127.75;121.78;;;18.50;99.90;;;;;;5074406;28;20043;-74
2023/06/21 04:32:19;;;;;;;153.07;145.45;;;18.60;99.90;;;;;;5073186;28;20137;-73
2023/06/21 04:34:47;;;;;;;146.35;139.07;;;18.70;99.90;;;;;;5078701;28;20150;-73
2023/06/21 04:37:13;;;;;;;173.52;165.48;;;18.80;99.90;;;;;;5073602;28;20059;-73
2023/06/21 04:39:39;;;;;;;132.63;126.47;;;18.80;99.90;;;;;;5076739;28;20052;-73
2023/06/21 04:42:05;;;;;;;163.10;155.15;;;18.60;99.90;;;;;;5073710;28;20048;-73
2023/06/21 04:44:31;;;;;;;194.93;185.60;;;18.60;99.90;;;;;;5067106;28;20037;-75
2023/06/21 04:47:00;;;;;;;197.85;187.80;;;18.70;99.90;;;;;;5075099;28;20036;-75
2023/06/21 04:49:26;;;;;;;106.97;101.18;;;19.20;99.90;;;;;;5075698;28;20040;-75
2023/06/21 04:51:58;;;;;;;178.70;170.60;;;19.40;99.90;;;;;;5076030;28;20067;-76
2023/06/21 04:54:24;;;;;;;156.52;148.55;;;19.20;99.90;;;;;;5057825;28;20490;-73
2023/06/21 04:56:51;;;;;;;142.30;134.93;;;19.20;99.90;;;;;;5070057;28;20048;-75
2023/06/21 04:59:17;;;;;;;147.65;140.63;;;19.20;99.90;;;;;;5074421;28;20486;-76
2023/06/21 05:01:43;;;;;;;156.88;149.52;;;19.00;99.90;;;;;;5051756;28;20041;-75
2023/06/21 05:04:08;;;;;;;147.88;140.75;;;19.40;99.90;;;;;;5075533;28;20066;-74
2023/06/21 05:06:35;;;;;;;131.18;124.63;;;19.00;99.90;;;;;;5077165;28;20039;-75
2023/06/21 05:09:00;;;;;;;143.43;136.57;;;19.40;99.90;;;;;;5073632;28;20038;-75
2023/06/21 05:11:26;;;;;;;151.77;144.13;;;19.40;99.90;;;;;;5074727;28;20031;-74
2023/06/21 05:13:52;;;;;;;129.88;123.53;;;19.30;99.90;;;;;;5075952;28;20187;-74
2023/06/21 05:16:18;;;;;;;152.77;145.13;;;19.40;99.90;;;;;;5086468;28;20029;-74
2023/06/21 05:18:43;;;;;;;163.77;155.48;;;19.70;99.90;;;;;;5077259;28;20040;-75
2023/06/21 05:21:09;;;;;;;154.25;146.02;;;19.40;99.90;;;;;;5071850;28;20056;-76
2023/06/21 05:23:35;;;;;;;153.50;146.32;;;19.90;99.90;;;;;;5071715;28;20032;-76
2023/06/21 05:26:00;;;;;;;177.85;168.75;;;19.80;99.90;;;;;;5076733;28;20040;-76
2023/06/21 05:28:26;;;;;;;155.70;148.25;;;19.90;99.90;;;;;;5070668;28;20124;-74
2023/06/21 05:30:52;;;;;;;170.63;162.18;;;19.70;99.90;;;;;;5075579;28;20044;-74
2023/06/21 05:33:17;;;;;;;135.50;129.45;;;19.90;99.90;;;;;;5087113;28;20055;-75
2023/06/21 05:35:43;;;;;;;183.48;175.23;;;20.10;99.90;;;;;;5072025;28;20025;-76
2023/06/21 05:38:08;;;;;;;152.40;144.60;;;20.30;99.90;;;;;;5076272;28;20533;-75
2023/06/21 05:40:34;;;;;;;166.82;159.50;;;20.50;99.90;;;;;;5072035;28;20033;-76
2023/06/21 05:43:04;;;;;;;182.85;174.60;;;20.40;99.90;;;;;;5072075;28;20561;-75
2023/06/21 05:45:29;;;;;;;183.27;174.48;;;20.50;99.90;;;;;;5070192;28;20111;-75
2023/06/21 05:48:00;;;;;;;209.75;200.30;;;20.60;99.90;;;;;;5072124;28;20124;-74
2023/06/21 05:50:30;;;;;;;230.02;219.88;;;20.70;99.90;;;;;;5070136;28;20040;-74
2023/06/21 05:52:59;;;;;;;202.95;193.25;;;20.70;99.90;;;;;;5072042;28;20549;-74
2023/06/21 05:55:25;;;;;;;251.98;240.70;;;20.90;99.90;;;;;;5085143;28;20043;-75
2023/06/21 05:57:50;;;;;;;205.50;196.52;;;20.90;99.90;;;;;;5076913;28;20032;-74
2023/06/21 06:00:18;;;;;;;223.68;214.02;;;21.10;99.90;;;;;;5071738;28;20115;-75
2023/06/21 06:02:45;;;;;;;222.00;212.15;;;21.10;99.90;;;;;;5075119;28;20033;-74
2023/06/21 06:05:11;;;;;;;239.15;228.75;;;21.30;99.90;;;;;;5076192;28;20036;-74
2023/06/21 06:07:37;;;;;;;215.82;206.15;;;21.40;99.90;;;;;;5051716;28;20049;-74
2023/06/21 06:10:04;;;;;;;222.20;212.23;;;21.20;99.90;;;;;;5073356;28;20033;-75
2023/06/21 06:12:30;;;;;;;149.00;141.63;;;21.30;99.90;;;;;;5074416;28;20040;-75
2023/06/21 06:14:56;;;;;;;224.63;214.32;;;21.20;99.90;;;;;;5070217;28;20059;-75
2023/06/21 06:17:22;;;;;;;264.02;252.18;;;21.20;99.90;;;;;;5068473;28;20064;-74
2023/06/21 06:19:47;;;;;;;252.52;241.13;;;21.30;99.90;;;;;;5070232;28;20062;-75
2023/06/21 06:22:13;;;;;;;332.50;317.55;;;21.40;99.90;;;;;;5076811;28;20052;-74
2023/06/21 06:24:39;;;;;;;286.17;272.83;;;21.40;99.90;;;;;;5076734;28;20052;-75
2023/06/21 06:27:05;;;;;;;277.58;264.58;;;21.40;99.90;;;;;;5034706;28;20040;-74
2023/06/21 06:29:31;;;;;;;268.85;256.90;;;21.60;99.90;;;;;;5072588;28;20033;-74
2023/06/21 06:31:56;;;;;;;259.00;247.88;;;21.60;99.90;;;;;;5072746;28;20534;-74
2023/06/21 06:34:22;;;;;;;284.60;271.45;;;21.80;99.90;;;;;;5070512;28;20032;-75
2023/06/21 06:36:48;;;;;;;243.73;232.65;;;21.60;99.90;;;;;;5073197;28;20066;-75
2023/06/21 06:39:14;;;;;;;235.25;224.73;;;21.60;99.90;;;;;;5052095;28;20356;-75
2023/06/21 06:41:40;;;;;;;186.05;177.35;;;21.70;99.90;;;;;;5071332;28;20510;-75
2023/06/21 06:44:05;;;;;;;183.25;175.43;;;21.30;99.90;;;;;;5074046;28;20036;-75
2023/06/21 06:46:31;;;;;;;218.32;208.98;;;21.20;99.90;;;;;;5069850;28;20036;-75
2023/06/21 06:48:57;;;;;;;196.23;187.40;;;21.70;99.90;;;;;;5080302;28;20035;-74
2023/06/21 06:51:23;;;;;;;146.07;139.55;;;21.60;99.90;;;;;;5088559;28;20037;-76
2023/06/21 06:53:49;;;;;;;200.10;191.38;;;21.50;99.90;;;;;;5075385;28;20093;-74
2023/06/21 06:56:14;;;;;;;185.30;177.50;;;21.80;99.90;;;;;;5053585;28;20040;-75
2023/06/21 06:58:40;;;;;;;163.02;155.73;;;22.00;99.90;;;;;;5075960;28;20029;-75
2023/06/21 07:01:06;;;;;;;132.98;126.72;;;21.80;99.90;;;;;;5072131;28;20539;-75
2023/06/21 07:03:33;;;;;;;112.57;107.53;;;21.80;99.90;;;;;;5073186;28;20031;-75
2023/06/21 07:05:59;;;;;;;94.07;90.10;;;21.70;99.90;;;;;;5074647;28;20028;-75
2023/06/21 07:08:25;;;;;;;144.07;138.05;;;21.80;99.90;;;;;;5076126;28;20089;-75
2023/06/21 07:10:51;;;;;;;99.13;94.80;;;21.00;99.90;;;;;;5076334;28;20500;-75
2023/06/21 07:13:17;;;;;;;124.35;119.13;;;21.20;99.90;;;;;;5093853;28;20082;-75
2023/06/21 07:15:44;;;;;;;122.60;116.97;;;21.10;99.90;;;;;;5078704;28;20016;-75
2023/06/21 07:18:13;;;;;;;102.32;98.00;;;21.20;99.90;;;;;;5077816;28;20032;-76
2023/06/21 07:20:38;;;;;;;125.30;119.90;;;21.20;99.90;;;;;;5077874;28;20028;-75
2023/06/21 07:23:04;;;;;;;128.50;123.20;;;21.30;99.60;;;;;;5076852;28;20461;-75
2023/06/21 07:25:30;;;;;;;160.95;154.57;;;21.30;99.90;;;;;;5072926;28;20493;-76
2023/06/21 07:27:56;;;;;;;133.35;127.97;;;21.50;99.90;;;;;;5061949;28;20036;-75
2023/06/21 07:30:25;;;;;;;176.88;169.60;;;21.60;99.90;;;;;;5073781;28;20058;-75
2023/06/21 07:32:51;;;;;;;168.75;161.77;;;21.40;94.40;;;;;;5078121;28;20094;-76
2023/06/21 07:35:16;;;;;;;190.48;182.75;;;21.80;99.90;;;;;;5075749;28;20028;-75
2023/06/21 07:37:43;;;;;;;189.57;181.82;;;21.80;99.90;;;;;;5088638;28;20033;-76
2023/06/21 07:40:10;;;;;;;345.30;330.63;;;22.00;98.50;;;;;;5079338;28;20563;-76
2023/06/21 07:42:39;;;;;;;322.75;309.50;;;21.70;96.20;;;;;;5075689;28;20037;-76
2023/06/21 07:45:06;;;;;;;336.37;322.20;;;22.10;91.10;;;;;;5071399;28;20067;-76
2023/06/21 07:47:32;;;;;;;342.23;328.42;;;22.60;91.40;;;;;;5075479;28;20119;-75
2023/06/21 07:49:58;;;;;;;349.40;335.20;;;23.50;91.30;;;;;;5075284;28;20119;-76
2023/06/21 07:52:24;;;;;;;339.98;326.75;;;24.00;79.70;;;;;;5090575;28;20085;-76
2023/06/21 07:54:51;;;;;;;324.48;310.77;;;24.60;78.00;;;;;;5078371;28;20028;-76
2023/06/21 07:57:17;;;;;;;544.65;518.47;;;24.90;72.40;;;;;;5072563;28;20042;-76
2023/06/21 07:59:43;;;;;;;315.90;303.20;;;25.10;72.40;;;;;;5076854;28;20028;-76
2023/06/21 08:02:17;;;;;;;499.67;476.13;;;25.40;68.70;;;;;;5076173;28;20032;-76
2023/06/21 08:04:46;;;;;;;493.42;469.75;;;25.30;67.60;;;;;;5057060;28;20049;-76
2023/06/21 08:07:13;;;;;;;566.63;539.97;;;25.00;65.60;;;;;;5075725;28;20115;-76
2023/06/21 08:09:39;;;;;;;578.83;550.30;;;25.00;68.40;;;;;;5054290;28;20535;-76
2023/06/21 08:12:05;;;;;;;505.60;482.70;;;25.20;67.10;;;;;;5077181;28;20135;-76
2023/06/21 08:14:31;;;;;;;644.33;612.03;;;25.90;65.90;;;;;;5076642;28;20374;-76
2023/06/21 08:16:56;;;;;;;567.35;540.13;;;25.90;63.40;;;;;;5074662;28;20039;-76
2023/06/21 08:19:22;;;;;;;398.67;380.92;;;26.20;63.40;;;;;;5044973;28;20101;-76
2023/06/21 08:21:48;;;;;;;556.53;529.63;;;25.80;68.00;;;;;;5051448;28;20069;-76
2023/06/21 08:24:13;;;;;;;591.25;561.38;;;26.30;65.30;;;;;;5086502;28;20025;-76
2023/06/21 08:26:39;;;;;;;631.05;598.90;;;26.60;63.90;;;;;;5053770;28;20043;-76
2023/06/21 08:29:04;;;;;;;673.80;639.20;;;26.70;62.40;;;;;;5047194;28;20045;-76
2023/06/21 08:31:30;;;;;;;650.35;617.60;;;26.80;62.30;;;;;;5050710;28;20067;-76
2023/06/21 08:33:56;;;;;;;633.25;601.60;;;26.10;63.60;;;;;;5054770;28;20119;-75
2023/06/21 08:36:22;;;;;;;623.28;593.03;;;25.80;62.80;;;;;;5068492;28;20116;-76
2023/06/21 08:38:48;;;;;;;682.67;646.30;;;25.40;64.30;;;;;;5054973;28;20032;-76
2023/06/21 08:41:14;;;;;;;622.47;589.63;;;25.30;65.00;;;;;;5050911;28;20033;-76
2023/06/21 08:43:39;;;;;;;643.40;598.80;;;24.60;68.00;;;;;;5054878;28;20028;-75
2023/06/21 08:46:06;;;;;;;354.35;324.15;;;23.70;62.80;;;;;;5058006;28;20041;-78
2023/06/21 08:48:35;;;;;;;392.58;366.30;;;19.10;99.90;;;;;;5054457;28;20047;-77
2023/06/21 08:51:04;;;;;;;486.08;451.92;;;18.20;99.90;;;;;;5052249;28;20398;-76
2023/06/21 08:53:43;;;;;;;408.85;383.63;;;17.60;99.90;;;;;;5053980;28;20135;-76
2023/06/21 08:56:09;;;;;;;396.00;372.88;;;17.10;99.90;;;;;;5057486;28;20083;-77
2023/06/21 08:58:48;;;;;;;352.58;333.77;;;17.10;99.90;;;;;;5053371;28;20083;-78
2023/06/21 09:01:16;;;;;;;350.15;333.85;;;16.80;99.90;;;;;;5050800;28;20044;-79
2023/06/21 09:03:58;;;;;;;287.90;274.23;;;16.70;99.90;;;;;;5087915;28;20025;-75
2023/06/21 09:06:26;;;;;;;312.42;298.17;;;16.30;99.90;;;;;;5052048;28;20099;-79
2023/06/21 09:08:58;;;;;;;239.93;230.02;;;16.60;99.90;;;;;;5056818;28;20114;-78
2023/06/21 09:11:24;;;;;;;176.52;168.75;;;17.10;99.90;;;;;;5053669;28;20641;-78
2023/06/21 09:13:51;;;;;;;136.15;129.43;;;17.00;99.90;;;;;;5053554;28;20120;-83
2023/06/21 09:16:19;;;;;;;130.43;124.25;;;17.40;99.90;;;;;;5058080;28;20176;-79
2023/06/21 09:18:45;;;;;;;129.38;123.30;;;17.00;99.90;;;;;;5056822;28;20119;-80
2023/06/21 09:21:12;;;;;;;106.45;101.65;;;17.70;99.90;;;;;;5054784;28;20044;-77
2023/06/21 09:23:40;;;;;;;116.35;110.78;;;17.40;99.90;;;;;;5059065;28;20033;-77
2023/06/21 09:26:08;;;;;;;85.13;80.28;;;16.90;99.90;;;;;;5053363;28;20033;-78
2023/06/21 09:28:34;;;;;;;97.80;92.63;;;17.50;99.90;;;;;;5055631;28;20103;-77
2023/06/21 09:31:00;;;;;;;127.03;121.18;;;17.30;99.90;;;;;;5052171;28;20048;-80
2023/06/21 09:33:26;;;;;;;137.82;130.52;;;17.70;99.90;;;;;;5052317;28;20044;-77
2023/06/21 09:35:52;;;;;;;121.07;114.63;;;17.90;99.90;;;;;;5058573;28;20071;-78
2023/06/21 09:38:24;;;;;;;121.00;115.15;;;17.90;99.90;;;;;;5053230;28;20399;-78
2023/06/21 09:40:50;;;;;;;121.70;115.38;;;18.20;99.90;;;;;;5052302;28;20722;-80
2023/06/21 09:43:20;;;;;;;119.65;113.60;;;17.50;99.90;;;;;;5049819;28;20036;-78
2023/06/21 09:46:03;;;;;;;105.55;99.72;;;17.60;99.90;;;;;;5051505;28;20033;-77
2023/06/21 09:48:33;;;;;;;99.78;93.97;;;17.60;99.90;;;;;;5085501;28;20096;-78
2023/06/21 09:51:04;;;;;;;110.68;105.28;;;17.60;99.90;;;;;;5053163;28;20035;-79
2023/06/21 09:53:30;;;;;;;111.75;105.93;;;18.50;99.90;;;;;;5044416;28;20024;-79
2023/06/21 09:55:56;;;;;;;97.13;92.28;;;18.90;99.90;;;;;;5056715;28;20032;-79
2023/06/21 09:58:22;;;;;;;115.28;109.50;;;18.00;99.90;;;;;;5053830;28;20033;-80
2023/06/21 10:00:48;;;;;;;98.43;93.22;;;18.00;99.90;;;;;;5052771;28;20064;-82
2023/06/21 10:03:14;;;;;;;104.55;99.07;;;17.90;99.90;;;;;;5049001;28;20498;-81
2023/06/21 10:06:18;;;;;;;98.78;93.38;;;19.00;99.90;;;;;;5051277;28;20031;-80
2023/06/21 10:08:46;;;;;;;83.97;78.95;;;18.70;99.90;;;;;;5032935;28;20040;-83
2023/06/21 10:11:16;;;;;;;86.03;81.28;;;19.30;99.90;;;;;;5050489;28;20083;-79
2023/06/21 10:13:42;;;;;;;84.18;79.78;;;19.40;99.90;;;;;;5048762;28;20037;-78
2023/06/21 10:16:08;;;;;;;94.35;89.35;;;18.60;99.90;;;;;;5052872;28;20394;-79
2023/06/21 10:18:34;;;;;;;93.00;88.28;;;19.00;99.90;;;;;;5051753;28;20029;-79
2023/06/21 10:21:06;;;;;;;93.18;88.00;;;19.70;99.90;;;;;;5055192;28;20029;-78
2023/06/21 10:23:34;;;;;;;103.00;97.57;;;19.70;99.90;;;;;;5073837;28;20042;-78
2023/06/21 10:26:06;;;;;;;83.47;79.25;;;19.30;99.90;;;;;;5070656;28;20458;-78
2023/06/21 10:28:36;;;;;;;88.97;84.22;;;19.80;99.90;;;;;;5074134;28;20056;-78
2023/06/21 10:31:03;;;;;;;91.00;86.25;;;19.60;99.90;;;;;;5051735;28;20523;-77
2023/06/21 10:33:32;;;;;;;95.65;90.95;;;19.60;99.90;;;;;;5069130;28;20042;-75
2023/06/21 10:36:02;;;;;;;79.10;74.63;;;20.00;99.90;;;;;;5069164;28;20439;-76
2023/06/21 10:38:39;;;;;;;84.97;80.47;;;19.70;99.90;;;;;;5074160;28;20092;-77
2023/06/21 10:41:05;;;;;;;110.05;105.03;;;20.40;99.90;;;;;;5078751;28;20028;-74
2023/06/21 10:43:33;;;;;;;78.88;74.93;;;20.70;99.90;;;;;;5077441;28;20393;-74
2023/06/21 10:46:00;;;;;;;112.88;107.18;;;20.90;99.90;;;;;;5078222;28;20379;-75
2023/06/21 10:48:27;;;;;;;115.13;109.35;;;20.30;99.90;;;;;;5078925;28;20029;-74
2023/06/21 10:50:53;;;;;;;118.90;112.93;;;20.10;99.90;;;;;;5058296;28;20035;-74
2023/06/21 10:53:20;;;;;;;160.45;153.20;;;20.10;99.90;;;;;;5079828;28;20078;-75
2023/06/21 10:55:46;;;;;;;194.95;186.30;;;20.10;99.90;;;;;;5059233;28;20074;-75
2023/06/21 10:58:13;;;;;;;126.15;120.55;;;20.60;99.90;;;;;;5077601;28;20031;-75
2023/06/21 11:00:41;;;;;;;132.75;126.82;;;20.50;99.90;;;;;;5055513;28;20549;-73
2023/06/21 11:03:12;;;;;;;162.85;155.75;;;20.50;99.90;;;;;;5073406;28;20085;-73
2023/06/21 11:05:39;;;;;;;130.20;124.68;;;20.30;99.90;;;;;;5080476;28;20051;-73
2023/06/21 11:08:05;;;;;;;250.20;240.40;;;20.70;99.90;;;;;;5075796;28;20040;-74
2023/06/21 11:10:57;;;;;;;290.27;277.88;;;21.00;99.90;;;;;;5073488;28;20059;-74
2023/06/21 11:13:39;;;;;;;147.43;141.10;;;21.40;99.90;;;;;;5069649;28;20048;-74
2023/06/21 11:16:17;;;;;;;172.80;165.45;;;21.50;99.90;;;;;;5075597;28;20028;-73
2023/06/21 11:18:55;;;;;;;134.07;128.40;;;22.70;99.90;;;;;;5079425;28;20524;-74
2023/06/21 11:21:41;;;;;;;273.42;261.23;;;23.30;97.90;;;;;;5078220;28;20148;-75
2023/06/21 11:24:11;;;;;;;193.85;184.77;;;24.20;88.00;;;;;;5056181;28;20490;-74
2023/06/21 11:26:57;;;;;;;360.58;345.40;;;24.80;82.20;;;;;;5093281;28;20028;-74
2023/06/21 11:29:45;;;;;;;279.38;267.67;;;25.50;74.20;;;;;;5074209;28;20082;-73
2023/06/21 11:32:13;;;;;;;350.73;335.60;;;25.40;73.00;;;;;;5061010;28;20056;-74
2023/06/21 11:34:58;;;;;;;360.92;344.40;;;25.60;70.40;;;;;;5056496;28;20028;-76
2023/06/21 11:37:31;;;;;;;588.22;558.60;;;26.60;67.00;;;;;;5076784;28;20032;-74
2023/06/21 11:39:59;;;;;;;540.10;514.40;;;26.50;64.30;;;;;;5079820;28;20020;-75
2023/06/21 11:42:27;;;;;;;619.90;586.65;;;27.20;66.00;;;;;;5077796;28;20055;-74
2023/06/21 11:44:54;;;;;;;711.42;671.30;;;27.60;62.30;;;;;;5076454;28;20069;-74
2023/06/21 11:47:20;;;;;;;931.95;865.95;;;28.20;61.10;;;;;;5094022;28;20074;-74
2023/06/21 11:49:53;;;;;;;932.85;866.83;;;28.70;55.70;;;;;;5090209;28;20070;-74
2023/06/21 11:52:24;;;;;;;953.70;886.55;;;28.20;59.00;;;;;;5078740;28;20033;-74
2023/06/21 11:54:50;;;;;;;1999.90;999.90;;;28.80;57.70;;;;;;5073673;28;20837;-75
2023/06/21 11:57:16;;;;;;;1999.90;999.90;;;29.50;54.20;;;;;;5083839;28;20024;-75
2023/06/21 11:59:43;;;;;;;1999.90;999.90;;;29.80;51.50;;;;;;5091997;28;20090;-74
2023/06/21 12:02:20;;;;;;;1999.90;999.90;;;29.80;51.50;;;;;;5076163;28;20055;-73
2023/06/21 12:04:48;;;;;;;1999.90;999.90;;;29.30;48.20;;;;;;5082987;28;20505;-74
2023/06/21 12:07:14;;;;;;;1999.90;999.90;;;29.70;49.30;;;;;;5074760;28;20399;-75
2023/06/21 12:09:48;;;;;;;1999.90;999.90;;;29.30;49.60;;;;;;5060362;28;20043;-77
2023/06/21 12:12:13;;;;;;;1999.90;999.90;;;30.00;50.10;;;;;;5079030;28;20055;-76